This is the latest recevied weather packets stored in our database for station/object SP5IZJ-2. If no packets are shown the sender has not sent any weather packets the latest 10 day(s).
| Time | Temp. | Humidity | Pressure | Rain* | Wind** | Luminosity | Snow |
|---|---|---|---|---|---|---|---|
| 1787633369 | 7.22° C | 92% | 1012.8 hPa | 0 mm | - | - | - |
| 1787633338 | 11.67° C | 94% | 1013.3 hPa | 0 mm | - | - | - |
| 1787632914 | 11.11° C | 93% | 1013.3 hPa | 0 mm | - | - | - |
| 1787632852 | 7.22° C | 92% | 1012.8 hPa | 0 mm | - | - | - |
| 1787632494 | 10° C | 93% | 1013.4 hPa | 0 mm | - | - | - |
| 1787632075 | 9.44° C | 93% | 1013.2 hPa | 0 mm | - | - | - |
| 1787631655 | 8.33° C | 92% | 1013 hPa | 0 mm | - | - | - |
| 1787631235 | 7.22° C | 92% | 1012.8 hPa | 0 mm | - | - | - |
| 1787630823 | 7.22° C | 92% | 1012.8 hPa | 0 mm | - | - | - |
| 1787630203 | 100° C | 100% | 0 hPa | 0 mm | - | - | - |
| 1787629287 | 7.22° C | 92% | 1013 hPa | 0 mm | - | - | - |
| 1787629136 | 100° C | 100% | 0 hPa | 0 mm | - | - | - |
| 1787628693 | 7.22° C | 92% | 1013 hPa | 0 mm | - | - | - |
| 1787628296 | 7.22° C | 92% | 1013 hPa | 0 mm | - | - | - |
| 1787627876 | 7.22° C | 92% | 1013 hPa | 0 mm | - | - | - |
| 1787627699 | 7.22° C | 91% | 1013 hPa | 0 mm | - | - | - |
| 1787627041 | 7.22° C | 91% | 1013 hPa | 0 mm | - | - | - |
| 1787626621 | 7.22° C | 92% | 1012.9 hPa | 0 mm | - | - | - |
| 1787626600 | 7.78° C | 91% | 1012.9 hPa | 0 mm | - | - | - |
| 1787626197 | 7.78° C | 91% | 1012.9 hPa | 0 mm | - | - | - |
| 1787626159 | 7.78° C | 91% | 1013.3 hPa | 0 mm | - | - | - |
| 1787625770 | 100° C | 100% | 0 hPa | 0 mm | - | - | - |
| 1787625318 | 7.78° C | 91% | 1013.2 hPa | 0 mm | - | - | - |
| 1787624937 | 7.78° C | 91% | 1013.2 hPa | 0 mm | - | - | - |
| 1787624316 | 7.78° C | 91% | 1013.1 hPa | 0 mm | - | - | - |
* Rain latest hour (hover to see other rain measurements)
** Current wind speed in m/s (hover to see current wind gust speed)